^^
Datos históricos de la estación: Murcia-Puente Tocinos
Diario Informe para Noviembre 3, 2019 Unidades:  Métrico    Ingés   Ambas
Diario Semanal Mensual Anual
  Máxima: Mínima: Promedio:
Temperatura: 26.2 °C 19.4 °C 22.7 °C
Punto de rocio: 11.8 °C 6.5 °C 9.7 °C
Humedad: 57% 36.8% 44%
Velocidad viento: 28.2km/h 2.2km/h 12.6km/h
Racha viento: 50.1km/h - -
Viento- - OSO
Presión: 1010.9 hPa 1002.3 hPa -
Precipitación: 0.0 mm    
 
 
Tabla de datos para Noviembre 3, 2019
Hora Temperatura Punto de rocio Presión Viento Velocidad viento Racha viento Humedad Intensidad lluvia(por hora) Nubes
00:04 21.4 °C 11.4 °C 1005.0 hPa SO 11.1 km/h 24.1 km/h 53% 0.0 mm
00:09 21.4 °C 11.3 °C 1005.0 hPa SSO 11.1 km/h 24.1 km/h 52.5% 0.0 mm
00:14 21.5 °C 11.3 °C 1004.8 hPa SSO 12 km/h 22.5 km/h 52.3% 0.0 mm
00:19 21.4 °C 11.4 °C 1004.8 hPa SO 12.2 km/h 20.4 km/h 53% 0.0 mm
00:24 21.2 °C 11.3 °C 1004.9 hPa SSO 12 km/h 20.9 km/h 53.1% 0.0 mm
00:29 21.2 °C 11.2 °C 1004.9 hPa SSO 11.9 km/h 25.9 km/h 53.1% 0.0 mm
00:34 21.2 °C 11.2 °C 1004.9 hPa SSO 12.8 km/h 25.7 km/h 53% 0.0 mm
00:39 21.2 °C 11.2 °C 1004.9 hPa SSO 13 km/h 20.9 km/h 53% 0.0 mm
00:44 21.2 °C 11.2 °C 1004.8 hPa SSO 12.2 km/h 20.9 km/h 53% 0.0 mm
00:49 21.3 °C 11.2 °C 1004.8 hPa SO 11.9 km/h 19.3 km/h 52.4% 0.0 mm
00:54 21.4 °C 11.1 °C 1004.8 hPa SO 10.4 km/h 20.4 km/h 52% 0.0 mm
00:59 21.6 °C 11 °C 1004.4 hPa SO 10 km/h 20.9 km/h 51% 0.0 mm
01:04 21.6 °C 11 °C 1004.4 hPa SO 10.9 km/h 20.9 km/h 51% 0.0 mm
01:09 21.6 °C 11 °C 1004.4 hPa SO 11.1 km/h 20.9 km/h 51% 0.0 mm
01:14 21.6 °C 11 °C 1004.1 hPa SO 10.5 km/h 19.8 km/h 51% 0.0 mm
01:19 21.6 °C 11 °C 1004.1 hPa OSO 10.3 km/h 22.5 km/h 51% 0.0 mm
01:24 21.5 °C 11.1 °C 1004.1 hPa SO 10.3 km/h 22.5 km/h 51.8% 0.0 mm
01:29 21.4 °C 11.1 °C 1004.1 hPa SO 10.3 km/h 22.5 km/h 52% 0.0 mm
01:34 21.4 °C 11.1 °C 1004.1 hPa SO 10.3 km/h 17.7 km/h 52% 0.0 mm
01:39 21.4 °C 11.1 °C 1004.1 hPa SO 10.3 km/h 18.5 km/h 52% 0.0 mm
01:44 21.4 °C 11.1 °C 1003.9 hPa SO 10.3 km/h 19.3 km/h 52% 0.0 mm
01:49 21.4 °C 11.1 °C 1003.9 hPa SO 10.3 km/h 17.2 km/h 52% 0.0 mm
01:54 21.4 °C 11.1 °C 1003.9 hPa SO 10.3 km/h 18.5 km/h 52% 0.0 mm
01:59 21.5 °C 11.2 °C 1003.8 hPa SO 10.3 km/h 19.3 km/h 52% 0.0 mm
02:04 21.5 °C 11.2 °C 1003.8 hPa OSO 9.7 km/h 16.1 km/h 52% 0.0 mm
02:09 21.4 °C 11.2 °C 1003.8 hPa OSO 9.5 km/h 14.5 km/h 52% 0.0 mm
02:14 21.3 °C 11.2 °C 1003.4 hPa Oeste 8 km/h 14.8 km/h 52.5% 0.0 mm
02:19 21.2 °C 11.2 °C 1003.4 hPa OSO 7.6 km/h 14.8 km/h 53% 0.0 mm
02:24 21.2 °C 11.2 °C 1003.4 hPa OSO 7.6 km/h 14.8 km/h 53% 0.0 mm
02:29 21.3 °C 11.3 °C 1003.2 hPa OSO 7.6 km/h 15.6 km/h 53% 0.0 mm
02:34 21.4 °C 11.4 °C 1003.2 hPa OSO 7.6 km/h 16.1 km/h 53% 0.0 mm
02:39 21.4 °C 11.4 °C 1003.2 hPa SO 7.6 km/h 11.9 km/h 53% 0.0 mm
02:44 21.4 °C 11.4 °C 1003.0 hPa Oeste 6.7 km/h 13.7 km/h 52.8% 0.0 mm
02:49 21.4 °C 11.4 °C 1003.0 hPa Oeste 6.5 km/h 14.5 km/h 53% 0.0 mm
02:54 21.2 °C 11.5 °C 1003.0 hPa Oeste 6.8 km/h 12.9 km/h 54% 0.0 mm
02:59 21 °C 11.4 °C 1003.0 hPa Oeste 6.9 km/h 11.9 km/h 54.3% 0.0 mm
03:04 20.9 °C 11.5 °C 1003.0 hPa Oeste 6.5 km/h 11.3 km/h 55% 0.0 mm
03:09 20.8 °C 11.5 °C 1003.2 hPa ONO 6.5 km/h 11.3 km/h 55% 0.0 mm
03:14 20.8 °C 11.5 °C 1003.2 hPa Oeste 6.5 km/h 13 km/h 55.2% 0.0 mm
03:19 20.7 °C 11.6 °C 1003.2 hPa ONO 6.5 km/h 12.9 km/h 56% 0.0 mm
03:24 20.7 °C 11.6 °C 1003.2 hPa Oeste 6.8 km/h 11.3 km/h 56% 0.0 mm
03:29 20.7 °C 11.6 °C 1003.2 hPa Oeste 6.9 km/h 9.7 km/h 56% 0.0 mm
03:34 20.7 °C 11.6 °C 1003.2 hPa Oeste 6 km/h 9.7 km/h 56% 0.0 mm
03:39 20.7 °C 11.6 °C 1003.2 hPa OSO 5.8 km/h 9.3 km/h 56% 0.0 mm
03:44 20.6 °C 11.5 °C 1003.1 hPa OSO 4.9 km/h 9.7 km/h 56% 0.0 mm
03:49 20.6 °C 11.5 °C 1003.1 hPa OSO 4.7 km/h 8 km/h 56% 0.0 mm
03:54 20.6 °C 11.5 °C 1003.1 hPa SO 4 km/h 8 km/h 56% 0.0 mm
03:59 20.7 °C 11.6 °C 1003.0 hPa SSO 3.9 km/h 9.3 km/h 56% 0.0 mm
04:04 20.7 °C 11.6 °C 1003.0 hPa Sur 4.8 km/h 11.1 km/h 56% 0.0 mm
04:09 20.7 °C 11.7 °C 1003.0 hPa Sur 5 km/h 11.3 km/h 56.5% 0.0 mm
04:14 20.6 °C 11.8 °C 1002.9 hPa Sur 7 km/h 13 km/h 57% 0.0 mm
04:19 20.6 °C 11.6 °C 1002.9 hPa SSO 7.6 km/h 12.9 km/h 56.4% 0.0 mm
04:24 20.7 °C 11.6 °C 1002.9 hPa Sur 7.1 km/h 12.2 km/h 55.9% 0.0 mm
04:29 20.8 °C 11.5 °C 1002.6 hPa SSO 6.9 km/h 13 km/h 55% 0.0 mm
04:34 21 °C 11.5 °C 1002.6 hPa Sur 7.4 km/h 12.9 km/h 54.5% 0.0 mm
04:39 21.2 °C 11.5 °C 1002.7 hPa Sur 7.6 km/h 13 km/h 54% 0.0 mm
04:44 21.3 °C 11.4 °C 1002.7 hPa SSO 7.6 km/h 13 km/h 53.3% 0.0 mm
04:49 21.3 °C 11.3 °C 1002.7 hPa SSO 7.6 km/h 13 km/h 53% 0.0 mm
04:54 21.4 °C 11.2 °C 1002.8 hPa SO 8.5 km/h 19.8 km/h 52.3% 0.0 mm
04:59 21.6 °C 10.3 °C 1002.8 hPa SO 8.7 km/h 35.2 km/h 48.5% 0.0 mm
05:04 22.1 °C 9.2 °C 1002.8 hPa SO 13.7 km/h 35.4 km/h 43.8% 0.0 mm
05:09 22.3 °C 8.9 °C 1002.8 hPa SO 14.8 km/h 35.4 km/h 42.2% 0.0 mm
05:14 22.4 °C 8.8 °C 1002.6 hPa SO 15.4 km/h 27.8 km/h 41.9% 0.0 mm
05:19 22.4 °C 8.5 °C 1002.6 hPa SO 15.6 km/h 27.8 km/h 41% 0.0 mm
05:24 22.4 °C 8.5 °C 1002.6 hPa SO 16.8 km/h 33.3 km/h 41% 0.0 mm
05:29 22.3 °C 8.3 °C 1002.6 hPa SO 17.2 km/h 33.8 km/h 40.6% 0.0 mm
05:34 22.3 °C 8.4 °C 1002.6 hPa OSO 17.8 km/h 29 km/h 41% 0.0 mm
05:39 22.2 °C 8.3 °C 1002.6 hPa SO 18 km/h 33.5 km/h 41% 0.0 mm
05:44 22.2 °C 8.3 °C 1002.4 hPa SO 18 km/h 33.8 km/h 41% 0.0 mm
05:49 22.1 °C 8.5 °C 1002.4 hPa SO 18 km/h 33.8 km/h 41.7% 0.0 mm
05:54 22.1 °C 8.5 °C 1002.4 hPa SO 15.5 km/h 31.7 km/h 41.8% 0.0 mm
05:59 22.2 °C 8.6 °C 1002.3 hPa SSO 14.8 km/h 32.2 km/h 42% 0.0 mm
06:04 22.1 °C 8.5 °C 1002.3 hPa SSO 16.1 km/h 33.3 km/h 41.6% 0.0 mm
06:09 22 °C 8.5 °C 1002.6 hPa SSO 16.4 km/h 33.8 km/h 42% 0.0 mm
06:14 21.9 °C 8.4 °C 1002.6 hPa SO 14.2 km/h 25.9 km/h 42% 0.0 mm
06:19 21.7 °C 8.3 °C 1002.6 hPa SO 13.7 km/h 24.1 km/h 42% 0.0 mm
06:24 21.6 °C 8.4 °C 1002.6 hPa SO 13.7 km/h 22.5 km/h 43% 0.0 mm
06:29 21.4 °C 8 °C 1002.6 hPa SO 13.7 km/h 22.5 km/h 42.3% 0.0 mm
06:34 21.3 °C 7.8 °C 1002.6 hPa SSO 12.3 km/h 24.5 km/h 41.8% 0.0 mm
06:39 21.3 °C 7.4 °C 1002.6 hPa SSO 11.9 km/h 29.6 km/h 40.7% 0.0 mm
06:44 21.3 °C 7.2 °C 1002.6 hPa SSO 13.6 km/h 29.6 km/h 40% 0.0 mm
06:49 21.3 °C 6.9 °C 1002.6 hPa SSO 14 km/h 35.2 km/h 39.3% 0.0 mm
06:54 21.3 °C 6.8 °C 1002.6 hPa SSO 17.4 km/h 35.4 km/h 39% 0.0 mm
06:59 21.2 °C 6.7 °C 1002.6 hPa SSO 18.4 km/h 33.8 km/h 39% 0.0 mm
07:04 21.2 °C 6.6 °C 1002.6 hPa SSO 19.5 km/h 32.2 km/h 39% 0.0 mm
07:09 21 °C 6.5 °C 1002.6 hPa SSO 19.8 km/h 29 km/h 39% 0.0 mm
07:14 20.9 °C 6.5 °C 1002.4 hPa SSO 16.9 km/h 29.6 km/h 39.3% 0.0 mm
07:19 20.9 °C 6.7 °C 1002.4 hPa SSO 16.1 km/h 29 km/h 39.9% 0.0 mm
07:24 20.9 °C 6.8 °C 1002.6 hPa SSO 16.1 km/h 35.2 km/h 39.9% 0.0 mm
07:29 21.1 °C 6.9 °C 1002.6 hPa SSO 16.1 km/h 35.4 km/h 40% 0.0 mm
07:34 21.2 °C 7 °C 1002.6 hPa SSO 17.9 km/h 34.3 km/h 40% 0.0 mm
07:39 21.2 °C 7.3 °C 1002.8 hPa SSO 18.4 km/h 33.8 km/h 40.6% 0.0 mm
07:44 21.3 °C 7.5 °C 1002.8 hPa SSO 18.9 km/h 33.8 km/h 41% 0.0 mm
07:49 21.3 °C 7.5 °C 1002.8 hPa SSO 19 km/h 35.2 km/h 41% 0.0 mm
07:54 21.3 °C 7.5 °C 1002.8 hPa SSO 18.5 km/h 35.4 km/h 41% 0.0 mm
07:59 21.3 °C 7.5 °C 1002.8 hPa SSO 18.4 km/h 28.2 km/h 41% 0.0 mm
08:04 21.3 °C 7.7 °C 1002.8 hPa SSO 16.8 km/h 27.4 km/h 41.5% 0.0 mm
08:09 21.3 °C 7.9 °C 1002.8 hPa SSO 16.4 km/h 29.8 km/h 42% 0.0 mm
08:14 21.3 °C 7.9 °C 1002.8 hPa SSO 16.2 km/h 30.6 km/h 42% 0.0 mm
08:19 21.3 °C 8 °C 1002.8 hPa SSO 16.1 km/h 27 km/h 42.2% 0.0 mm
08:24 21.3 °C 8.2 °C 1002.9 hPa SSO 14.5 km/h 27.8 km/h 43% 0.0 mm
08:29 21.3 °C 8.2 °C 1002.9 hPa SSO 14 km/h 20.9 km/h 43% 0.0 mm
08:34 21.3 °C 8.5 °C 1002.9 hPa SSO 12.6 km/h 24.1 km/h 43.8% 0.0 mm
08:39 21.4 °C 8.6 °C 1002.9 hPa SSO 12.2 km/h 24.1 km/h 44% 0.0 mm
08:44 21.4 °C 8.6 °C 1002.9 hPa SSO 13.6 km/h 24.1 km/h 44% 0.0 mm
08:49 21.4 °C 8.7 °C 1002.9 hPa SSO 14 km/h 24.1 km/h 44% 0.0 mm
08:54 21.6 °C 8.8 °C 1003.1 hPa SSO 14 km/h 24.1 km/h 44% 0.0 mm
08:59 21.7 °C 8.9 °C 1003.1 hPa SSO 14 km/h 27.8 km/h 44% 0.0 mm
09:04 21.8 °C 9.1 °C 1003.1 hPa SSO 13.7 km/h 27.4 km/h 44% 0.0 mm
09:09 22 °C 9.1 °C 1003.1 hPa SSO 13.7 km/h 25.7 km/h 44% 0.0 mm
09:14 22.1 °C 9.3 °C 1003.1 hPa SSO 13.9 km/h 25.6 km/h 44% 0.0 mm
09:19 22.2 °C 9.4 °C 1003.1 hPa SSO 14 km/h 25.9 km/h 44% 0.0 mm
09:24 22.3 °C 9.5 °C 1003.1 hPa SSO 14 km/h 28.2 km/h 44% 0.0 mm
09:29 22.4 °C 9.6 °C 1003.1 hPa SSO 14 km/h 27.8 km/h 44% 0.0 mm
09:34 22.4 °C 9.6 °C 1003.1 hPa SSO 15.3 km/h 27.8 km/h 44% 0.0 mm
09:39 22.5 °C 9.7 °C 1003.1 hPa SSO 15.6 km/h 30.9 km/h 44% 0.0 mm
09:44 22.6 °C 9.7 °C 1003.0 hPa SSO 16.2 km/h 32.2 km/h 44% 0.0 mm
09:49 22.7 °C 9.8 °C 1003.0 hPa SSO 16.4 km/h 27.8 km/h 44% 0.0 mm
09:54 22.7 °C 9.8 °C 1003.1 hPa SSO 16.2 km/h 27.8 km/h 43.9% 0.0 mm
09:59 22.8 °C 9.7 °C 1003.1 hPa SSO 16.1 km/h 27.8 km/h 43.4% 0.0 mm
10:04 22.9 °C 9.7 °C 1003.1 hPa SO 15.7 km/h 27.4 km/h 43.2% 0.0 mm
10:09 22.9 °C 9.7 °C 1003.2 hPa SSO 15.6 km/h 33.3 km/h 43% 0.0 mm
10:14 22.9 °C 9.6 °C 1003.2 hPa SSO 16 km/h 33.8 km/h 42.9% 0.0 mm
10:19 22.9 °C 9.4 °C 1003.2 hPa SSO 16.1 km/h 33.3 km/h 42.3% 0.0 mm
10:24 23.1 °C 9.5 °C 1003.3 hPa SSO 17 km/h 33.8 km/h 42.1% 0.0 mm
10:29 23.2 °C 9.6 °C 1003.3 hPa SSO 17.2 km/h 33.8 km/h 42% 0.0 mm
10:34 23.3 °C 9.7 °C 1003.3 hPa SSO 18.1 km/h 32.2 km/h 41.9% 0.0 mm
10:39 23.4 °C 9.4 °C 1003.3 hPa SSO 18.4 km/h 37 km/h 41.1% 0.0 mm
10:44 23.4 °C 9.4 °C 1003.3 hPa SSO 18.4 km/h 37 km/h 41.1% 0.0 mm
10:49 23.5 °C 9.5 °C 1003.3 hPa SSO 18.4 km/h 32.2 km/h 41.1% 0.0 mm
10:54 23.7 °C 9.6 °C 1003.3 hPa SSO 17.5 km/h 32.2 km/h 41% 0.0 mm
10:59 23.8 °C 9.7 °C 1003.3 hPa SSO 17.2 km/h 34.3 km/h 41% 0.0 mm
11:04 24 °C 9.8 °C 1003.3 hPa SSO 17.9 km/h 33.8 km/h 40.8% 0.0 mm
11:09 24.1 °C 10 °C 1003.3 hPa SSO 18 km/h 33.8 km/h 41% 0.0 mm
11:14 24.2 °C 10 °C 1003.2 hPa SSO 16.1 km/h 22.5 km/h 40.6% 0.0 mm
11:19 24.1 °C 10 °C 1003.2 hPa SSO 15.6 km/h 22.5 km/h 41% 0.0 mm
11:24 24.1 °C 10 °C 1003.5 hPa SSO 13 km/h 25.9 km/h 41% 0.0 mm
11:29 24.2 °C 10.2 °C 1003.5 hPa SO 12.2 km/h 25.7 km/h 41.1% 0.0 mm
11:34 24.3 °C 10.2 °C 1003.5 hPa OSO 11.3 km/h 19.3 km/h 41% 0.0 mm
11:39 24.2 °C 10.2 °C 1003.8 hPa OSO 11.1 km/h 20.4 km/h 41% 0.0 mm
11:44 24.2 °C 10.1 °C 1003.8 hPa SSO 10.5 km/h 20.9 km/h 41% 0.0 mm
11:49 24.5 °C 10.4 °C 1003.8 hPa SSO 10.3 km/h 20.9 km/h 41% 0.0 mm
11:54 24.7 °C 10.3 °C 1003.8 hPa SSO 10.1 km/h 19.3 km/h 40.4% 0.0 mm
11:59 24.7 °C 10.2 °C 1003.6 hPa Sur 10 km/h 18 km/h 40% 0.0 mm
12:04 24.8 °C 10.3 °C 1003.6 hPa Sur 8.9 km/h 19.3 km/h 40% 0.0 mm
12:09 24.9 °C 10.3 °C 1003.6 hPa SSE 8.7 km/h 14.8 km/h 39.8% 0.0 mm
12:14 25 °C 10.3 °C 1003.4 hPa SSE 7.8 km/h 14.5 km/h 39.6% 0.0 mm
12:19 25 °C 10.4 °C 1003.4 hPa Sur 7.6 km/h 13 km/h 39.8% 0.0 mm
12:24 25.2 °C 10.3 °C 1003.5 hPa OSO 7.6 km/h 14.8 km/h 39.3% 0.0 mm
12:29 25.1 °C 10.2 °C 1003.5 hPa Oeste 7.6 km/h 14.5 km/h 39% 0.0 mm
12:34 25.2 °C 10.2 °C 1003.5 hPa Oeste 7.1 km/h 12.9 km/h 39.1% 0.0 mm
12:39 25.3 °C 10.3 °C 1003.5 hPa Oeste 6.9 km/h 14 km/h 39% 0.0 mm
12:44 25.3 °C 10.4 °C 1003.4 hPa ONO 5.4 km/h 14.8 km/h 39% 0.0 mm
12:49 25.4 °C 10.4 °C 1003.4 hPa NO 5 km/h 14.5 km/h 38.9% 0.0 mm
12:54 25.6 °C 10.4 °C 1003.5 hPa ONO 6.5 km/h 14.8 km/h 38.5% 0.0 mm
12:59 25.7 °C 10 °C 1003.5 hPa SSO 6.9 km/h 25.9 km/h 37.4% 0.0 mm
13:04 25.7 °C 10 °C 1003.5 hPa SO 9.5 km/h 25.7 km/h 37.2% 0.0 mm
13:09 25.8 °C 10.4 °C 1003.5 hPa NNO 10 km/h 19.3 km/h 38% 0.0 mm
13:14 26 °C 10.6 °C 1003.3 hPa NO 8.7 km/h 16.4 km/h 38% 0.0 mm
13:19 26.1 °C 10.4 °C 1003.3 hPa NO 8.4 km/h 19 km/h 37.4% 0.0 mm
13:24 26.1 °C 10.7 °C 1003.3 hPa NO 8.6 km/h 20.4 km/h 38% 0.0 mm
13:29 26.2 °C 10.6 °C 1003.1 hPa ONO 8.7 km/h 24.1 km/h 37.8% 0.0 mm
13:34 26.2 °C 10.3 °C 1003.1 hPa ONO 12.1 km/h 29.8 km/h 37% 0.0 mm
13:39 26.2 °C 10.4 °C 1003.1 hPa Oeste 13 km/h 30.6 km/h 37.2% 0.0 mm
13:44 26.2 °C 10.5 °C 1003.1 hPa ONO 15.7 km/h 27.4 km/h 37.3% 0.0 mm
13:49 26.2 °C 10.5 °C 1003.1 hPa Oeste 16.4 km/h 37 km/h 37.5% 0.0 mm
13:54 26.2 °C 10.6 °C 1003.3 hPa ONO 17 km/h 37 km/h 37.7% 0.0 mm
13:59 26.2 °C 10.8 °C 1003.3 hPa ONO 17.2 km/h 33.8 km/h 38% 0.0 mm
14:04 26.1 °C 10.6 °C 1003.3 hPa ONO 18.1 km/h 37.8 km/h 37.7% 0.0 mm
14:09 25.9 °C 10.5 °C 1003.3 hPa ONO 18.4 km/h 37 km/h 38% 0.0 mm
14:14 25.9 °C 10.5 °C 1003.3 hPa ONO 21 km/h 30.6 km/h 38% 0.0 mm
14:19 26.1 °C 10.4 °C 1003.3 hPa Oeste 21.7 km/h 30.6 km/h 37.3% 0.0 mm
14:24 26.2 °C 10.3 °C 1003.5 hPa Oeste 17 km/h 27.4 km/h 37% 0.0 mm
14:29 26.2 °C 10.3 °C 1003.5 hPa Oeste 15.6 km/h 29.6 km/h 37% 0.0 mm
14:34 26.2 °C 10.3 °C 1003.5 hPa ONO 16 km/h 29.6 km/h 37% 0.0 mm
14:39 26 °C 10.4 °C 1003.5 hPa ONO 16.1 km/h 29.6 km/h 37.4% 0.0 mm
14:44 26 °C 10.3 °C 1003.5 hPa ONO 17.6 km/h 29 km/h 37.5% 0.0 mm
14:49 26 °C 10.2 °C 1003.5 hPa ONO 18 km/h 37 km/h 37% 0.0 mm
14:54 25.8 °C 10 °C 1003.5 hPa ONO 18 km/h 37 km/h 36.8% 0.0 mm
14:59 25.7 °C 9.9 °C 1003.4 hPa ONO 18 km/h 44.4 km/h 37% 0.0 mm
15:04 25.8 °C 9.9 °C 1003.4 hPa Oeste 21 km/h 45.1 km/h 37% 0.0 mm
15:09 25.8 °C 10 °C 1003.5 hPa ONO 21.7 km/h 41.8 km/h 37% 0.0 mm
15:14 25.7 °C 10.1 °C 1003.5 hPa Oeste 20.5 km/h 37 km/h 37.3% 0.0 mm
15:19 25.8 °C 10.1 °C 1003.5 hPa Oeste 20.1 km/h 38.9 km/h 37.3% 0.0 mm
15:24 25.7 °C 10.2 °C 1003.8 hPa ONO 20.1 km/h 38.9 km/h 37.6% 0.0 mm
15:29 25.6 °C 10.2 °C 1003.8 hPa ONO 20.1 km/h 40.7 km/h 38% 0.0 mm
15:34 25.5 °C 10.1 °C 1003.8 hPa ONO 21.6 km/h 40.2 km/h 38% 0.0 mm
15:39 25.5 °C 10.2 °C 1004.0 hPa ONO 22.1 km/h 34.3 km/h 38.3% 0.0 mm
15:44 25.6 °C 10.2 °C 1004.0 hPa ONO 19.7 km/h 33.8 km/h 38% 0.0 mm
15:49 25.6 °C 10.2 °C 1004.0 hPa ONO 19 km/h 35.9 km/h 38% 0.0 mm
15:54 25.5 °C 10.1 °C 1004.2 hPa ONO 21.4 km/h 42.3 km/h 38% 0.0 mm
15:59 25.3 °C 10 °C 1004.2 hPa Oeste 22.1 km/h 50.1 km/h 38.2% 0.0 mm
16:04 25.2 °C 10.1 °C 1004.2 hPa ONO 27.1 km/h 49.9 km/h 38.6% 0.0 mm
16:09 25.1 °C 10.2 °C 1004.3 hPa ONO 28.2 km/h 46.7 km/h 39% 0.0 mm
16:14 25.1 °C 10.2 °C 1004.3 hPa ONO 26.1 km/h 42.6 km/h 39% 0.0 mm
16:19 25.1 °C 10.1 °C 1004.3 hPa Oeste 25.6 km/h 41.8 km/h 38.7% 0.0 mm
16:24 25.2 °C 9.9 °C 1004.6 hPa Oeste 24.1 km/h 40.7 km/h 38.1% 0.0 mm
16:29 25.2 °C 10.2 °C 1004.6 hPa Oeste 23.7 km/h 40.2 km/h 38.8% 0.0 mm
16:34 25.2 °C 9.9 °C 1004.6 hPa Oeste 20.9 km/h 44.4 km/h 38% 0.0 mm
16:39 25.1 °C 9.4 °C 1004.8 hPa Oeste 20.1 km/h 50.1 km/h 37% 0.0 mm
16:44 25 °C 9.3 °C 1004.8 hPa Oeste 22.9 km/h 49.9 km/h 37% 0.0 mm
16:49 24.9 °C 9.3 °C 1004.8 hPa Oeste 23.7 km/h 37 km/h 37.2% 0.0 mm
16:54 24.9 °C 9.3 °C 1005.2 hPa Oeste 20.9 km/h 44.3 km/h 37.3% 0.0 mm
16:59 24.8 °C 9.5 °C 1005.2 hPa Oeste 20.1 km/h 45.1 km/h 37.9% 0.0 mm
17:04 24.7 °C 9.5 °C 1005.2 hPa Oeste 21.7 km/h 45.1 km/h 38% 0.0 mm
17:09 24.7 °C 9.4 °C 1005.4 hPa OSO 22.1 km/h 40.2 km/h 38% 0.0 mm
17:14 24.7 °C 9.1 °C 1005.4 hPa Oeste 19.1 km/h 40.7 km/h 37.4% 0.0 mm
17:19 24.6 °C 9.3 °C 1005.4 hPa Oeste 18.4 km/h 40.2 km/h 38% 0.0 mm
17:24 24.4 °C 9 °C 1005.4 hPa Oeste 19.7 km/h 48.4 km/h 37.4% 0.0 mm
17:29 24.4 °C 8.9 °C 1005.2 hPa Oeste 20.1 km/h 48.3 km/h 37.4% 0.0 mm
17:34 24.3 °C 9 °C 1005.2 hPa OSO 17.2 km/h 32.2 km/h 37.9% 0.0 mm
17:39 24.3 °C 9 °C 1005.7 hPa OSO 16.4 km/h 33.3 km/h 38% 0.0 mm
17:44 24.2 °C 9 °C 1005.7 hPa OSO 15.8 km/h 39.6 km/h 38% 0.0 mm
17:49 24.1 °C 8.9 °C 1005.7 hPa Oeste 15.6 km/h 40.2 km/h 38% 0.0 mm
17:54 24 °C 9 °C 1006.0 hPa OSO 15.6 km/h 27.4 km/h 38.4% 0.0 mm
17:59 23.9 °C 9.1 °C 1006.0 hPa OSO 15.6 km/h 25.7 km/h 39% 0.0 mm
18:04 23.8 °C 9 °C 1006.0 hPa Oeste 14 km/h 27.8 km/h 39% 0.0 mm
18:09 23.7 °C 9 °C 1006.4 hPa OSO 13.7 km/h 27.4 km/h 39% 0.0 mm
18:14 23.7 °C 9.2 °C 1006.4 hPa OSO 12.3 km/h 20.9 km/h 39.8% 0.0 mm
18:19 23.6 °C 9.2 °C 1006.4 hPa OSO 11.9 km/h 16.1 km/h 40% 0.0 mm
18:24 23.6 °C 9.2 °C 1006.7 hPa OSO 9.1 km/h 22.2 km/h 40% 0.0 mm
18:29 23.4 °C 9.1 °C 1006.7 hPa OSO 8.4 km/h 22.5 km/h 40.4% 0.0 mm
18:34 23.3 °C 9.3 °C 1006.7 hPa OSO 9.6 km/h 16.7 km/h 41% 0.0 mm
18:39 23.3 °C 9.3 °C 1007.1 hPa OSO 10 km/h 18.5 km/h 41% 0.0 mm
18:44 23.2 °C 9.3 °C 1007.1 hPa Oeste 10 km/h 19.3 km/h 41.4% 0.0 mm
18:49 23 °C 9.4 °C 1007.1 hPa Oeste 10 km/h 16.7 km/h 42% 0.0 mm
18:54 22.9 °C 9.3 °C 1007.3 hPa Oeste 10.9 km/h 22.5 km/h 42% 0.0 mm
18:59 22.9 °C 9.4 °C 1007.3 hPa Oeste 11.1 km/h 22.5 km/h 42.3% 0.0 mm
19:04 22.8 °C 9.6 °C 1007.3 hPa Oeste 13.2 km/h 22.5 km/h 43% 0.0 mm
19:09 22.7 °C 9.5 °C 1007.5 hPa Oeste 13.7 km/h 20.9 km/h 43% 0.0 mm
19:14 22.7 °C 9.5 °C 1007.5 hPa Oeste 12.3 km/h 22.2 km/h 43% 0.0 mm
19:19 22.7 °C 9.5 °C 1007.5 hPa Oeste 11.9 km/h 22.5 km/h 43% 0.0 mm
19:24 22.7 °C 9.5 °C 1007.5 hPa Oeste 12.8 km/h 25.9 km/h 43% 0.0 mm
19:29 22.6 °C 9.4 °C 1007.5 hPa Oeste 13 km/h 25.7 km/h 43% 0.0 mm
19:34 22.6 °C 9.4 °C 1007.5 hPa OSO 12.4 km/h 20.9 km/h 43% 0.0 mm
19:39 22.5 °C 9.3 °C 1007.9 hPa OSO 12.2 km/h 19.3 km/h 43% 0.0 mm
19:44 22.4 °C 9.2 °C 1007.9 hPa OSO 10.5 km/h 19.3 km/h 43% 0.0 mm
19:49 22.4 °C 9.3 °C 1007.9 hPa OSO 10 km/h 19.3 km/h 43.1% 0.0 mm
19:54 22.4 °C 9.2 °C 1008.2 hPa SO 8.7 km/h 16.1 km/h 43% 0.0 mm
19:59 22.4 °C 9.2 °C 1008.2 hPa SO 8.4 km/h 16.1 km/h 43% 0.0 mm
20:04 22.4 °C 9.5 °C 1008.2 hPa SSO 7.2 km/h 9.7 km/h 43.8% 0.0 mm
20:09 22.3 °C 9.5 °C 1008.3 hPa Sur 6.9 km/h 13 km/h 44% 0.0 mm
20:14 22.2 °C 9.4 °C 1008.3 hPa SSO 6.9 km/h 15.6 km/h 44% 0.0 mm
20:19 22.2 °C 9.4 °C 1008.3 hPa SSO 6.9 km/h 16.1 km/h 44% 0.0 mm
20:24 22.3 °C 9.3 °C 1008.4 hPa SO 8.3 km/h 14.8 km/h 43.5% 0.0 mm
20:29 22.4 °C 9.2 °C 1008.4 hPa SO 8.7 km/h 14.5 km/h 43% 0.0 mm
20:34 22.4 °C 9.2 °C 1008.4 hPa SO 7.8 km/h 14.8 km/h 43% 0.0 mm
20:39 22.4 °C 9.2 °C 1008.6 hPa OSO 7.6 km/h 14.8 km/h 43% 0.0 mm
20:44 22.3 °C 9.2 °C 1008.6 hPa OSO 8.2 km/h 14.5 km/h 43% 0.0 mm
20:49 22.2 °C 9.3 °C 1008.6 hPa OSO 8.4 km/h 9.7 km/h 43.7% 0.0 mm
20:54 22.1 °C 9.3 °C 1008.8 hPa SO 6.3 km/h 11.1 km/h 44% 0.0 mm
20:59 22 °C 9.2 °C 1008.8 hPa SO 5.8 km/h 11.3 km/h 44% 0.0 mm
21:04 21.8 °C 9.3 °C 1008.8 hPa OSO 5.8 km/h 11.9 km/h 44.9% 0.0 mm
21:09 21.7 °C 9.3 °C 1009.1 hPa SO 5.8 km/h 11.3 km/h 45% 0.0 mm
21:14 21.7 °C 9.2 °C 1009.1 hPa SSO 6.7 km/h 11.9 km/h 45% 0.0 mm
21:19 21.6 °C 9.4 °C 1009.1 hPa SSO 6.9 km/h 11.3 km/h 45.9% 0.0 mm
21:24 21.4 °C 9.3 °C 1009.3 hPa SO 6.9 km/h 11.3 km/h 46% 0.0 mm
21:29 21.4 °C 9.3 °C 1009.3 hPa SO 6.9 km/h 11.1 km/h 46% 0.0 mm
21:34 21.3 °C 9.2 °C 1009.3 hPa SO 6.9 km/h 11.3 km/h 46% 0.0 mm
21:39 21.2 °C 9.1 °C 1009.6 hPa SO 6.9 km/h 10 km/h 46% 0.0 mm
21:44 21.1 °C 9.3 °C 1009.6 hPa OSO 6 km/h 9.7 km/h 46.8% 0.0 mm
21:49 20.9 °C 9.2 °C 1009.6 hPa OSO 5.8 km/h 8.4 km/h 47% 0.0 mm
21:54 20.8 °C 9.1 °C 1009.9 hPa OSO 4.9 km/h 8 km/h 47% 0.0 mm
21:59 20.8 °C 9 °C 1009.9 hPa OSO 4.7 km/h 8.4 km/h 47% 0.0 mm
22:04 20.7 °C 9.3 °C 1009.9 hPa OSO 4.9 km/h 8 km/h 48% 0.0 mm
22:09 20.6 °C 9.2 °C 1010.2 hPa Oeste 5 km/h 8 km/h 48% 0.0 mm
22:14 20.5 °C 9.2 °C 1010.2 hPa ONO 4.7 km/h 27.8 km/h 48.4% 0.0 mm
22:19 20.7 °C 9.3 °C 1010.2 hPa ONO 4.7 km/h 27.4 km/h 48% 0.0 mm
22:24 20.7 °C 9.3 °C 1010.2 hPa ONO 10.6 km/h 25.6 km/h 48% 0.0 mm
22:29 20.7 °C 9.3 °C 1010.2 hPa ONO 12.2 km/h 28.2 km/h 48% 0.0 mm
22:34 20.7 °C 9.3 °C 1010.2 hPa ONO 13.4 km/h 27.4 km/h 48% 0.0 mm
22:39 20.7 °C 9.3 °C 1010.2 hPa ONO 13.7 km/h 24.1 km/h 48% 0.0 mm
22:44 20.7 °C 9.3 °C 1010.1 hPa Oeste 13.9 km/h 24.1 km/h 48% 0.0 mm
22:49 20.7 °C 9.3 °C 1010.1 hPa SSO 14 km/h 16.1 km/h 47.9% 0.0 mm
22:54 20.5 °C 9.2 °C 1010.5 hPa SE 9.9 km/h 14.5 km/h 48.1% 0.0 mm
22:59 20.3 °C 9.2 °C 1010.5 hPa SSE 8.7 km/h 9.7 km/h 49% 0.0 mm
23:04 20.1 °C 9.3 °C 1010.5 hPa SSE 5.7 km/h 11.1 km/h 49.8% 0.0 mm
23:09 19.9 °C 9.3 °C 1010.6 hPa SSE 5 km/h 11.3 km/h 50.2% 0.0 mm
23:14 19.8 °C 9.4 °C 1010.6 hPa SSE 5 km/h 9.3 km/h 51% 0.0 mm
23:19 19.7 °C 9.4 °C 1010.6 hPa SSE 5 km/h 11.1 km/h 51.4% 0.0 mm
23:24 19.7 °C 9.3 °C 1010.6 hPa SO 6.1 km/h 11.3 km/h 51% 0.0 mm
23:29 19.7 °C 9.4 °C 1010.6 hPa ONO 6.5 km/h 9.7 km/h 51.7% 0.0 mm
23:34 19.5 °C 9.4 °C 1010.6 hPa Oeste 5 km/h 9.7 km/h 52% 0.0 mm
23:39 19.5 °C 9.3 °C 1010.9 hPa SO 4.7 km/h 8 km/h 52% 0.0 mm
23:44 19.4 °C 9.3 °C 1010.9 hPa SO 2.8 km/h 6.4 km/h 51.8% 0.0 mm
23:49 19.6 °C 9.1 °C 1010.9 hPa OSO 2.2 km/h 10 km/h 51% 0.0 mm
23:54 19.7 °C 9.3 °C 1010.9 hPa SO 4.1 km/h 11.1 km/h 51% 0.0 mm
23:59 19.7 °C 9.3 °C 1010.8 hPa SO 4.7 km/h 11.3 km/h 51% 0.0 mm
Murcia-Puente Tocinos, España
Compliments of Weather Underground - 3 mb

La estación de MeteoMurcia.com, publica sus datos en los siguientes proyectos:

Weather Underground PWS IMURCIAP2 Meteoclimatic www.awekas.at

W3Counter
Web Analytics